Time;durP1;ratioP1;P1;durP2;ratioP2;P2;SDS_P1;SDS_P2;PMS_P1;PMS_P2;Temp;Humidity;BMP_temperature;BMP_pressure;BME280_temperature;BME280_humidity;BME280_pressure;Samples;Min_cycle;Max_cycle;Signal;HPM_P1;HPM_P2
2021/12/25 00:03:43;;;;;;;12.63;9.32;;;;;;;2.83;79.03;95173.19;10305809;28;97446;-77
2021/12/25 00:08:46;;;;;;;11.95;8.85;;;;;;;2.88;78.09;95176.22;10299421;28;98775;-78
2021/12/25 00:13:48;;;;;;;11.50;7.75;;;;;;;2.92;78.31;95174.19;10299118;28;97571;-78
2021/12/25 00:18:53;;;;;;;11.93;8.30;;;;;;;2.91;78.76;95173.38;10304233;28;98990;-78
2021/12/25 00:23:59;;;;;;;10.52;7.65;;;;;;;2.95;78.54;95174.75;10295238;28;96910;-78
2021/12/25 00:29:03;;;;;;;11.73;7.32;;;;;;;2.99;78.47;95160.66;10289063;28;97741;-78
2021/12/25 00:34:09;;;;;;;8.50;5.40;;;;;;;3.00;78.62;95151.97;10283194;28;96989;-78
2021/12/25 00:39:13;;;;;;;6.60;4.55;;;;;;;3.00;78.54;95146.00;10282478;28;99540;-78
2021/12/25 00:44:16;;;;;;;6.57;4.30;;;;;;;3.05;79.13;95143.84;10293683;28;96890;-78
2021/12/25 00:49:20;;;;;;;7.82;5.60;;;;;;;3.01;79.46;95143.28;10285976;28;96928;-78
2021/12/25 00:54:23;;;;;;;9.65;5.80;;;;;;;3.03;79.31;95136.25;10281979;28;97531;-78
2021/12/25 00:59:26;;;;;;;7.32;4.97;;;;;;;3.14;79.04;95142.28;10289222;28;96862;-79
2021/12/25 01:04:30;;;;;;;5.05;3.33;;;;;;;3.31;79.62;95139.06;10298594;28;99057;-78
2021/12/25 01:09:33;;;;;;;5.55;3.40;;;;;;;3.35;78.70;95130.13;10283585;28;97612;-78
2021/12/25 01:14:41;;;;;;;6.55;3.22;;;;;;;3.35;79.57;95122.38;10294785;28;98794;-78
2021/12/25 01:20:09;;;;;;;8.20;4.63;;;;;;;3.34;79.00;95128.47;10286479;28;97338;-78
2021/12/25 01:30:45;;;;;;;7.95;4.05;;;;;;;3.43;79.44;95127.69;10195816;28;98392;-78
2021/12/25 01:41:54;;;;;;;7.03;3.92;;;;;;;3.59;79.26;95121.22;10046536;28;98319;-79
2021/12/25 01:52:15;;;;;;;7.25;4.47;;;;;;;3.57;79.83;95118.78;10042528;28;99617;-78
2021/12/25 01:57:18;;;;;;;7.45;4.63;;;;;;;3.61;79.22;95114.97;10046535;28;96922;-79
2021/12/25 02:02:22;;;;;;;7.32;4.53;;;;;;;3.54;79.50;95123.38;10045116;28;97076;-79
2021/12/25 02:07:26;;;;;;;7.60;4.50;;;;;;;3.60;79.93;95120.25;10139791;28;97970;-78
2021/12/25 02:12:29;;;;;;;6.38;4.55;;;;;;;3.66;79.65;95106.81;10265793;28;98420;-79
2021/12/25 02:17:49;;;;;;;6.38;4.25;;;;;;;3.71;79.38;95103.81;10291142;28;96939;-79
2021/12/25 02:22:59;;;;;;;6.35;3.80;;;;;;;3.69;79.24;95100.56;10296945;28;98283;-78
2021/12/25 02:28:03;;;;;;;6.68;4.20;;;;;;;3.71;79.02;95102.06;10286911;28;97577;-78
2021/12/25 02:33:06;;;;;;;8.13;4.75;;;;;;;3.73;79.24;95102.75;10287584;28;98217;-79
2021/12/25 02:38:10;;;;;;;5.32;3.20;;;;;;;3.74;78.84;95088.91;10293105;28;98907;-78
2021/12/25 02:43:13;;;;;;;31.83;16.02;;;;;;;3.74;78.79;95093.22;10288643;28;96984;-78
2021/12/25 02:48:19;;;;;;;12.25;6.82;;;;;;;3.77;78.84;95082.63;10300834;28;98053;-78
2021/12/25 02:53:23;;;;;;;6.28;3.88;;;;;;;3.80;78.85;95077.22;10295187;28;98580;-79
2021/12/25 02:58:27;;;;;;;5.10;3.55;;;;;;;3.76;78.82;95078.41;10286505;28;96871;-79
2021/12/25 03:03:30;;;;;;;6.07;3.72;;;;;;;3.66;79.13;95070.66;10290702;28;97171;-79
2021/12/25 03:08:35;;;;;;;7.10;4.18;;;;;;;3.66;78.81;95073.25;10298248;28;96774;-79
2021/12/25 03:13:44;;;;;;;4.70;3.30;;;;;;;3.68;79.21;95073.94;10297271;28;96879;-78
2021/12/25 03:18:52;;;;;;;8.38;5.05;;;;;;;3.63;79.15;95071.75;10289515;28;97107;-79
2021/12/25 03:23:57;;;;;;;8.93;5.35;;;;;;;3.52;78.45;95074.44;10293211;28;97275;-79
2021/12/25 03:29:03;;;;;;;6.68;4.32;;;;;;;3.22;78.70;95067.56;10289852;28;96903;-78
2021/12/25 03:34:06;;;;;;;5.68;3.33;;;;;;;3.03;79.16;95076.91;10290769;28;98646;-78
2021/12/25 03:39:11;;;;;;;5.55;3.80;;;;;;;2.89;79.13;95064.34;10291133;28;96731;-78
2021/12/25 03:44:13;;;;;;;6.40;3.67;;;;;;;2.69;79.31;95073.75;10294999;28;96914;-78
2021/12/25 03:49:27;;;;;;;8.57;5.45;;;;;;;2.63;79.01;95057.03;10290100;28;98725;-78
2021/12/25 03:59:59;;;;;;;14.68;9.05;;;;;;;2.37;78.90;95061.78;10273940;28;96931;-78
2021/12/25 04:05:04;;;;;;;12.68;8.07;;;;;;;2.39;79.57;95064.22;10296311;28;97922;-79
2021/12/25 04:10:10;;;;;;;12.50;8.50;;;;;;;2.41;78.77;95046.88;10291456;28;98398;-78
2021/12/25 04:15:13;;;;;;;14.20;8.93;;;;;;;2.41;79.22;95055.44;10286465;28;98570;-78
2021/12/25 04:20:17;;;;;;;13.50;8.77;;;;;;;2.40;79.16;95055.56;10290767;28;96891;-78
2021/12/25 04:25:26;;;;;;;13.32;8.55;;;;;;;2.40;79.38;95052.97;10290922;28;96897;-78
2021/12/25 04:30:37;;;;;;;14.65;9.10;;;;;;;2.41;78.70;95052.84;10281975;28;97046;-79
2021/12/25 05:02:35;;;;;;;11.70;7.63;;;;;;;2.38;80.00;95041.97;10158717;28;97045;-78
2021/12/25 05:07:38;;;;;;;13.15;8.52;;;;;;;2.41;79.78;95041.72;10167108;28;96944;-78
2021/12/25 05:12:42;;;;;;;12.52;8.43;;;;;;;2.41;79.32;95031.41;10157838;28;98306;-79
2021/12/25 05:17:45;;;;;;;13.52;6.95;;;;;;;2.22;79.87;95030.34;10144940;28;97559;-79
2021/12/25 05:22:48;;;;;;;11.90;7.38;;;;;;;2.15;79.65;95031.81;10241640;28;96913;-79
2021/12/25 05:27:52;;;;;;;12.70;8.75;;;;;;;2.07;79.93;95035.00;10289313;28;96907;-78
2021/12/25 05:32:55;;;;;;;13.75;8.20;;;;;;;1.84;80.30;95038.63;10283749;28;96899;-78
2021/12/25 05:37:59;;;;;;;11.40;7.18;;;;;;;1.76;80.64;95041.81;10282726;28;96890;-80
2021/12/25 05:43:03;;;;;;;11.63;6.90;;;;;;;1.99;80.92;95039.13;10290836;28;96930;-78
2021/12/25 05:48:07;;;;;;;8.88;6.55;;;;;;;2.21;80.27;95036.44;10291759;28;99306;-78
2021/12/25 05:53:10;;;;;;;11.82;6.60;;;;;;;2.35;80.58;95031.91;10297151;28;96927;-78
2021/12/25 05:58:14;;;;;;;9.15;6.18;;;;;;;2.48;79.45;95019.66;10315334;28;99426;-78
2021/12/25 06:03:17;;;;;;;8.77;5.47;;;;;;;2.43;79.81;95024.38;10279503;28;97628;-78
2021/12/25 06:08:21;;;;;;;7.13;4.50;;;;;;;2.27;80.20;95024.84;10284850;28;96882;-79
2021/12/25 06:13:25;;;;;;;7.00;4.63;;;;;;;2.36;79.88;95018.91;10288835;28;97630;-78
2021/12/25 06:18:28;;;;;;;4.50;3.22;;;;;;;2.49;80.14;95023.84;10287308;28;98770;-78
2021/12/25 06:23:31;;;;;;;5.55;3.75;;;;;;;2.56;79.73;95034.47;10278383;28;97150;-78
2021/12/25 06:28:35;;;;;;;7.32;4.72;;;;;;;2.65;79.71;95029.38;10286721;28;100741;-78
2021/12/25 06:33:38;;;;;;;9.20;4.65;;;;;;;2.72;80.13;95024.50;10287356;28;97001;-78
2021/12/25 06:38:41;;;;;;;9.77;6.47;;;;;;;2.78;79.81;95038.66;10294551;28;96832;-78
2021/12/25 06:43:45;;;;;;;7.32;4.65;;;;;;;2.79;79.89;95025.63;10288438;28;97101;-78
2021/12/25 06:48:48;;;;;;;7.40;5.10;;;;;;;2.81;79.95;95022.91;10293396;28;99314;-78
2021/12/25 06:53:51;;;;;;;7.97;3.92;;;;;;;2.51;80.38;95006.47;10291489;28;96876;-78
2021/12/25 06:58:56;;;;;;;8.00;4.75;;;;;;;2.46;80.28;95011.22;10302065;28;96895;-78
2021/12/25 07:03:59;;;;;;;6.22;4.82;;;;;;;2.48;80.26;94996.44;10293579;28;97969;-78
2021/12/25 07:09:02;;;;;;;7.68;4.47;;;;;;;2.55;79.88;95007.06;10296441;28;98243;-78
2021/12/25 07:14:08;;;;;;;6.32;3.97;;;;;;;2.57;79.80;95000.81;10295715;28;98015;-78
2021/12/25 07:19:15;;;;;;;5.68;4.03;;;;;;;2.59;79.90;94998.94;10292594;28;98536;-78
2021/12/25 07:24:18;;;;;;;5.35;4.07;;;;;;;2.62;79.95;95003.84;10288634;28;97306;-78
2021/12/25 07:29:22;;;;;;;5.25;3.92;;;;;;;2.69;79.79;95015.25;10294839;28;96855;-78
2021/12/25 07:34:26;;;;;;;7.80;4.77;;;;;;;2.72;79.33;95005.63;10289902;28;97418;-78
2021/12/25 07:39:29;;;;;;;6.30;4.40;;;;;;;2.68;79.59;95003.31;10295616;28;96741;-78
2021/12/25 07:44:33;;;;;;;8.07;5.25;;;;;;;2.64;79.94;95014.81;10292215;28;100585;-78
2021/12/25 07:49:36;;;;;;;11.68;6.57;;;;;;;2.66;80.39;95020.66;10288147;28;96814;-78
2021/12/25 07:54:39;;;;;;;24.83;13.73;;;;;;;2.44;80.65;95025.97;10289276;28;98714;-78
2021/12/25 07:59:43;;;;;;;26.23;14.70;;;;;;;2.57;80.75;95024.03;10291810;28;99112;-78
2021/12/25 08:04:46;;;;;;;20.85;11.23;;;;;;;2.66;80.45;95020.66;10306818;28;97134;-78
2021/12/25 08:09:49;;;;;;;42.55;21.30;;;;;;;2.78;80.04;95013.66;10302695;28;97090;-78
2021/12/25 08:14:53;;;;;;;17.92;9.57;;;;;;;2.75;80.43;95019.06;10285501;28;97025;-78
2021/12/25 08:19:58;;;;;;;9.82;6.35;;;;;;;2.62;80.66;95018.50;10287028;28;100233;-78
2021/12/25 08:25:01;;;;;;;5.53;3.72;;;;;;;2.82;80.47;95024.53;10282041;28;97256;-78
2021/12/25 08:30:08;;;;;;;6.88;5.47;;;;;;;3.02;80.89;95026.22;10284793;28;96908;-78
2021/12/25 08:35:14;;;;;;;13.35;6.85;;;;;;;3.24;80.36;95014.88;10290075;28;100612;-78
2021/12/25 08:40:17;;;;;;;8.88;5.65;;;;;;;3.45;79.74;95024.31;10281183;28;97092;-78
2021/12/25 08:50:39;;;;;;;10.55;6.38;;;;;;;3.69;79.48;95013.59;10291462;28;99127;-77
2021/12/25 08:55:42;;;;;;;9.95;6.97;;;;;;;3.70;80.48;95004.06;10288219;28;97237;-77
2021/12/25 09:00:50;;;;;;;10.10;5.80;;;;;;;3.87;80.19;95015.50;10282618;28;97600;-78
2021/12/25 09:06:00;;;;;;;8.10;5.13;;;;;;;4.04;79.64;95001.03;10282647;28;97027;-78
2021/12/25 09:11:03;;;;;;;7.72;5.15;;;;;;;4.20;79.89;95007.28;10290346;28;98477;-78
2021/12/25 09:16:07;;;;;;;8.18;5.82;;;;;;;4.39;79.61;95005.63;10281793;28;97774;-77
2021/12/25 09:21:10;;;;;;;10.73;7.20;;;;;;;4.57;79.61;95009.06;10282936;28;97288;-78
2021/12/25 09:26:17;;;;;;;13.48;8.57;;;;;;;4.69;79.63;95011.50;10280816;28;97720;-78
2021/12/25 09:31:22;;;;;;;12.48;8.38;;;;;;;4.75;79.02;95016.13;10287050;28;97253;-77
2021/12/25 09:36:29;;;;;;;13.65;9.18;;;;;;;4.81;79.19;95010.38;10285360;28;96845;-78
2021/12/25 09:41:33;;;;;;;12.80;8.53;;;;;;;4.82;78.98;95024.94;10272008;28;97089;-77
2021/12/25 09:46:38;;;;;;;14.50;9.40;;;;;;;4.97;78.85;95027.88;10276958;28;97859;-77
2021/12/25 09:51:43;;;;;;;13.73;9.60;;;;;;;5.07;78.68;95040.78;10283262;28;96921;-77
2021/12/25 09:56:48;;;;;;;12.20;9.00;;;;;;;5.12;78.73;95047.16;10281582;28;96804;-78
2021/12/25 10:01:55;;;;;;;14.63;9.32;;;;;;;5.20;78.68;95046.44;10294195;28;98332;-77
2021/12/25 10:06:59;;;;;;;14.02;9.50;;;;;;;5.33;78.54;95044.31;10286111;28;97293;-78
2021/12/25 10:12:05;;;;;;;11.77;8.73;;;;;;;5.23;78.48;95025.41;10290353;28;97728;-78
2021/12/25 10:17:16;;;;;;;12.07;8.80;;;;;;;5.19;78.93;95021.50;10292414;28;96758;-78
2021/12/25 10:22:19;;;;;;;10.82;8.05;;;;;;;5.31;78.84;95022.94;10291990;28;101529;-78
2021/12/25 10:27:22;;;;;;;12.32;8.07;;;;;;;5.45;78.46;95028.59;10280875;28;96780;-78
2021/12/25 10:32:26;;;;;;;13.35;9.73;;;;;;;5.59;78.36;95020.31;10299097;28;97564;-77
2021/12/25 10:37:29;;;;;;;14.87;10.07;;;;;;;5.68;78.49;95034.94;10289539;28;97339;-77
2021/12/25 10:42:34;;;;;;;13.57;10.25;;;;;;;5.71;78.46;95024.31;10288732;28;97044;-78
2021/12/25 10:47:39;;;;;;;13.05;9.65;;;;;;;5.65;78.21;95011.13;10291187;28;97324;-77
2021/12/25 10:52:46;;;;;;;14.30;10.88;;;;;;;5.70;78.26;94994.19;10289625;28;97301;-77
2021/12/25 10:57:51;;;;;;;14.50;10.40;;;;;;;5.79;78.25;94979.53;10296927;28;96799;-77
2021/12/25 11:02:59;;;;;;;13.73;10.82;;;;;;;5.91;78.15;94982.66;10290782;28;101007;-78
2021/12/25 11:08:07;;;;;;;14.85;11.38;;;;;;;6.07;78.05;94984.59;10301298;28;98583;-77
2021/12/25 11:13:17;;;;;;;13.85;10.50;;;;;;;6.22;77.72;95000.41;10298237;28;98939;-78
2021/12/25 11:18:22;;;;;;;11.93;8.93;;;;;;;6.31;77.73;94999.50;10292327;28;97053;-78
2021/12/25 11:23:25;;;;;;;12.40;9.20;;;;;;;6.38;77.74;95003.13;10293369;28;96830;-78
2021/12/25 11:28:28;;;;;;;12.15;8.90;;;;;;;6.45;77.33;94996.38;10299189;28;97710;-79
2021/12/25 11:33:32;;;;;;;13.55;10.00;;;;;;;6.52;77.32;94985.34;10302452;28;97144;-78
2021/12/25 11:38:35;;;;;;;12.77;9.63;;;;;;;6.47;76.80;94978.84;10294433;28;96874;-77
2021/12/25 11:43:43;;;;;;;13.30;9.35;;;;;;;6.35;76.96;94982.69;10290643;28;96950;-78
2021/12/25 11:49:05;;;;;;;11.45;9.18;;;;;;;6.47;76.92;94978.84;10291528;28;97034;-77
2021/12/25 11:54:43;;;;;;;14.02;9.55;;;;;;;6.59;76.63;94976.00;10282454;28;97357;-77
2021/12/25 11:59:48;;;;;;;14.68;9.88;;;;;;;6.62;76.56;94973.09;10287953;28;96782;-77
2021/12/25 12:05:19;;;;;;;12.95;9.95;;;;;;;6.52;76.59;94974.97;10288537;28;97292;-77
2021/12/25 12:11:00;;;;;;;15.85;9.75;;;;;;;6.35;77.35;94974.91;10290922;28;97494;-76
2021/12/25 12:16:05;;;;;;;15.68;11.82;;;;;;;6.36;76.73;94973.91;10297001;28;99525;-77
2021/12/25 12:21:36;;;;;;;15.43;10.60;;;;;;;6.40;77.19;94977.00;10298323;28;98800;-76
2021/12/25 12:26:53;;;;;;;13.15;9.98;;;;;;;6.39;77.30;94976.22;10285995;28;97093;-76
2021/12/25 12:31:56;;;;;;;12.70;9.27;;;;;;;6.35;76.95;94980.09;10287762;28;97431;-76
2021/12/25 12:37:28;;;;;;;12.15;9.05;;;;;;;6.36;76.89;94981.69;10294092;28;98031;-78
2021/12/25 12:42:53;;;;;;;14.98;10.18;;;;;;;6.32;77.13;94985.56;10295879;28;98621;-77
2021/12/25 12:48:17;;;;;;;12.93;10.03;;;;;;;6.36;77.54;94975.69;10300529;28;97251;-77
2021/12/25 12:53:23;;;;;;;12.50;10.07;;;;;;;6.31;77.02;94972.75;10311866;28;98219;-75
2021/12/25 12:58:28;;;;;;;16.00;11.57;;;;;;;6.25;77.64;94982.78;10287721;28;97320;-76
2021/12/25 13:03:31;;;;;;;14.02;9.90;;;;;;;6.27;78.35;94973.03;10296398;28;97638;-75
2021/12/25 13:08:39;;;;;;;13.18;10.32;;;;;;;6.25;78.34;94974.19;10303258;28;96953;-75
2021/12/25 13:13:51;;;;;;;11.15;8.65;;;;;;;6.20;78.79;94973.81;10296519;28;96908;-77
2021/12/25 13:18:57;;;;;;;14.40;8.68;;;;;;;6.12;79.18;94968.56;10297668;28;98639;-74
2021/12/25 13:24:07;;;;;;;14.27;9.38;;;;;;;6.19;79.39;94959.22;10294936;28;96939;-75
2021/12/25 13:29:14;;;;;;;15.90;12.00;;;;;;;6.28;79.37;94945.34;10294359;28;98147;-74
2021/12/25 13:34:21;;;;;;;14.40;10.45;;;;;;;6.22;79.83;94944.16;10287430;28;96963;-72
2021/12/25 13:39:28;;;;;;;12.57;8.60;;;;;;;6.12;79.91;94947.84;10296128;28;99834;-72
2021/12/25 13:44:34;;;;;;;14.93;10.38;;;;;;;6.24;79.85;94944.84;10298356;28;97116;-72
2021/12/25 13:49:40;;;;;;;14.27;10.57;;;;;;;6.32;79.78;94957.03;10284438;28;96835;-72
2021/12/25 13:54:47;;;;;;;13.52;10.38;;;;;;;6.28;79.87;94950.53;10291264;28;97322;-73
2021/12/25 13:59:52;;;;;;;12.20;9.10;;;;;;;6.33;80.01;94958.69;10293311;28;96848;-71
2021/12/25 14:04:56;;;;;;;13.03;8.03;;;;;;;6.35;79.92;94958.53;10296158;28;96923;-71
2021/12/25 14:10:02;;;;;;;11.55;7.90;;;;;;;6.37;79.74;94957.41;10284687;28;97669;-71
2021/12/25 14:15:06;;;;;;;12.45;9.15;;;;;;;6.35;79.68;94959.34;10299993;28;96973;-72
2021/12/25 14:20:14;;;;;;;18.53;12.70;;;;;;;6.37;80.03;94960.00;10309184;28;98644;-72
2021/12/25 14:25:23;;;;;;;24.42;19.67;;;;;;;6.36;79.82;94963.53;10301594;28;100894;-71
2021/12/25 14:30:26;;;;;;;18.85;15.55;;;;;;;6.30;80.25;94961.56;10296179;28;99075;-71
2021/12/25 14:35:28;;;;;;;15.77;12.10;;;;;;;6.28;80.16;94960.91;10295981;28;97777;-72
2021/12/25 14:40:39;;;;;;;26.52;19.30;;;;;;;6.33;80.29;94971.66;10306388;28;99630;-71
2021/12/25 14:45:46;;;;;;;32.63;25.80;;;;;;;6.29;80.20;94970.31;10299611;28;96930;-71
2021/12/25 14:50:55;;;;;;;39.50;31.45;;;;;;;6.33;80.26;94976.00;10296984;28;97672;-72
2021/12/25 14:56:02;;;;;;;32.72;26.20;;;;;;;6.36;80.21;94981.69;10295722;28;98377;-71
2021/12/25 15:01:10;;;;;;;27.45;20.58;;;;;;;6.36;80.20;94979.09;10287486;28;97114;-71
2021/12/25 15:06:22;;;;;;;26.48;21.23;;;;;;;6.37;80.39;94978.16;10299833;28;98686;-71
2021/12/25 15:11:32;;;;;;;24.52;19.88;;;;;;;6.21;80.56;94983.25;10290831;28;97081;-71
2021/12/25 15:16:37;;;;;;;23.25;18.73;;;;;;;6.20;80.58;94981.59;10289084;28;96979;-72
2021/12/25 15:21:46;;;;;;;21.77;14.30;;;;;;;6.20;81.13;94984.19;10285263;28;97750;-71
2021/12/25 15:26:53;;;;;;;17.45;12.32;;;;;;;6.22;80.84;94985.66;10288126;28;96843;-71
2021/12/25 15:32:00;;;;;;;17.48;12.32;;;;;;;6.26;81.07;94987.00;10288855;28;96875;-74
2021/12/25 15:37:18;;;;;;;13.57;9.30;;;;;;;6.30;81.09;94979.72;10294783;28;97210;-74
2021/12/25 15:42:23;;;;;;;15.13;9.68;;;;;;;6.27;80.69;94990.41;10285436;28;97284;-74
2021/12/25 15:47:26;;;;;;;9.43;6.50;;;;;;;6.28;80.90;94986.84;10287524;28;96763;-74
2021/12/25 15:52:29;;;;;;;12.48;9.00;;;;;;;6.28;80.81;94987.66;10284336;28;97206;-74
2021/12/25 15:57:35;;;;;;;11.60;9.15;;;;;;;6.21;80.68;94988.44;10286114;28;97226;-74
2021/12/25 16:02:39;;;;;;;15.98;11.52;;;;;;;5.94;81.35;94987.56;10287838;28;101334;-74
2021/12/25 16:07:42;;;;;;;15.00;10.98;;;;;;;5.78;81.41;94977.88;10286544;28;97291;-74
2021/12/25 16:12:47;;;;;;;15.15;10.63;;;;;;;5.75;81.63;94979.97;10291943;28;97897;-74
2021/12/25 16:17:50;;;;;;;15.00;11.50;;;;;;;5.71;81.78;94982.03;10298748;28;98407;-73
2021/12/25 16:22:53;;;;;;;13.25;10.05;;;;;;;5.70;81.55;94985.56;10301017;28;97740;-75
2021/12/25 16:27:57;;;;;;;21.58;13.50;;;;;;;5.56;81.83;94979.13;10299405;28;97059;-75
2021/12/25 16:33:02;;;;;;;27.17;17.03;;;;;;;5.49;82.15;94983.28;10294355;28;101051;-76
2021/12/25 16:38:07;;;;;;;16.50;11.93;;;;;;;5.47;81.75;94972.25;10294812;28;96924;-76
2021/12/25 16:43:13;;;;;;;26.17;18.38;;;;;;;5.43;81.68;94974.34;10291761;28;96972;-76
2021/12/25 16:48:20;;;;;;;25.70;18.55;;;;;;;5.27;82.11;94975.00;10294892;28;100918;-77
2021/12/25 16:53:24;;;;;;;29.27;18.98;;;;;;;5.16;82.29;94982.94;10299203;28;97134;-76
2021/12/25 16:58:29;;;;;;;22.05;16.75;;;;;;;5.21;82.34;94985.91;10296978;28;97512;-75
2021/12/25 17:03:32;;;;;;;22.63;16.73;;;;;;;5.18;82.19;94981.03;10297891;28;97481;-77
2021/12/25 17:08:34;;;;;;;23.88;15.45;;;;;;;5.12;82.26;94987.59;10294160;28;96884;-76
2021/12/25 17:13:39;;;;;;;23.33;17.35;;;;;;;5.11;82.22;94995.50;10281892;28;97909;-77
2021/12/25 17:18:42;;;;;;;24.60;17.88;;;;;;;5.04;81.96;94995.25;10294382;28;96923;-77
2021/12/25 17:23:45;;;;;;;24.75;17.35;;;;;;;4.95;82.09;95009.09;10292311;28;97503;-75
2021/12/25 17:28:49;;;;;;;21.70;16.42;;;;;;;4.87;82.37;95003.78;10294023;28;98042;-75
2021/12/25 17:33:52;;;;;;;22.90;15.33;;;;;;;4.76;82.82;95003.03;10290132;28;97028;-76
2021/12/25 17:38:57;;;;;;;30.55;21.80;;;;;;;4.54;83.21;95001.63;10300363;28;96926;-77
2021/12/25 17:44:03;;;;;;;;;;;;;;;4.31;82.99;95011.47;10289608;28;99835;-78
2021/12/25 17:49:08;;;;;;;35.72;25.17;;;;;;;4.23;83.41;95007.94;10294590;28;96824;-77
2021/12/25 17:54:25;;;;;;;35.42;24.42;;;;;;;4.29;83.14;95004.81;10298231;28;97179;-78
2021/12/25 17:59:29;;;;;;;33.60;22.15;;;;;;;4.43;83.36;95001.78;10294177;28;101006;-78
2021/12/25 18:04:32;;;;;;;29.25;19.90;;;;;;;4.51;83.44;94999.31;10305512;28;97667;-76
2021/12/25 18:09:36;;;;;;;23.45;16.80;;;;;;;4.62;82.99;95000.09;10296172;28;97036;-77
2021/12/25 18:14:40;;;;;;;29.25;20.27;;;;;;;4.69;83.08;94995.97;10291269;28;97110;-77
2021/12/25 18:19:44;;;;;;;34.08;19.80;;;;;;;4.58;83.17;95000.38;10301589;28;96853;-77
2021/12/25 18:24:47;;;;;;;21.75;15.98;;;;;;;4.54;83.55;94993.88;10296706;28;97715;-77
2021/12/25 18:29:52;;;;;;;25.73;17.42;;;;;;;4.60;83.05;94986.50;10301438;28;96836;-77
2021/12/25 18:34:55;;;;;;;17.42;11.63;;;;;;;4.48;83.10;94993.59;10314733;28;96963;-77
2021/12/25 18:39:59;;;;;;;18.70;12.63;;;;;;;4.47;83.15;94979.88;10288463;28;96912;-77
2021/12/25 18:45:04;;;;;;;19.45;12.48;;;;;;;4.48;82.99;94985.84;10297029;28;96913;-77
2021/12/25 18:50:09;;;;;;;30.27;21.05;;;;;;;4.41;83.17;94988.19;10295357;28;97773;-77
2021/12/25 18:55:12;;;;;;;16.55;11.57;;;;;;;4.18;83.26;94985.94;10291320;28;96792;-76
2021/12/25 19:00:19;;;;;;;19.50;14.90;;;;;;;4.27;83.77;94980.88;10309751;28;96891;-77
2021/12/25 19:05:23;;;;;;;22.10;16.02;;;;;;;4.37;83.22;94986.84;10300035;28;97445;-77
2021/12/25 19:10:26;;;;;;;20.38;15.07;;;;;;;4.38;83.11;94980.69;10296803;28;96931;-76
2021/12/25 19:15:31;;;;;;;20.63;15.27;;;;;;;4.43;83.04;94986.25;10300235;28;97133;-75
2021/12/25 19:20:34;;;;;;;18.87;13.43;;;;;;;4.50;83.00;94986.53;10286084;28;98147;-75
2021/12/25 19:25:37;;;;;;;22.50;14.80;;;;;;;4.46;82.97;94986.00;10286362;28;96919;-76
2021/12/25 19:30:45;;;;;;;20.75;14.13;;;;;;;4.27;83.60;94980.88;10285258;28;97034;-75
2021/12/25 19:35:50;;;;;;;20.33;13.50;;;;;;;4.24;83.88;94983.75;10300576;28;96972;-76
2021/12/25 19:40:55;;;;;;;14.80;11.93;;;;;;;4.35;83.58;94983.56;10296467;28;96860;-75
2021/12/25 19:46:00;;;;;;;17.40;13.32;;;;;;;4.33;83.30;94995.81;10302076;28;98525;-77
2021/12/25 19:51:07;;;;;;;22.52;15.43;;;;;;;4.31;83.20;94977.84;10286902;28;98224;-76
2021/12/25 19:56:10;;;;;;;21.10;14.60;;;;;;;4.34;83.20;94974.19;10284866;28;97251;-77
2021/12/25 20:01:20;;;;;;;20.42;14.32;;;;;;;4.38;83.66;94975.53;10280672;28;97983;-77
2021/12/25 20:06:25;;;;;;;23.80;17.40;;;;;;;4.44;83.29;94990.50;10280773;28;97676;-77
2021/12/25 20:11:30;;;;;;;26.08;18.08;;;;;;;4.48;83.22;94981.50;10286818;28;98837;-77
2021/12/25 20:16:35;;;;;;;25.20;18.77;;;;;;;4.39;83.28;94979.75;10284812;28;98703;-77
2021/12/25 20:21:38;;;;;;;25.10;18.35;;;;;;;4.22;83.49;94972.72;10284511;28;96903;-77
2021/12/25 20:26:43;;;;;;;30.27;19.70;;;;;;;4.31;83.63;94977.03;10288169;28;98654;-77
2021/12/25 20:31:47;;;;;;;27.88;18.48;;;;;;;4.37;83.23;94976.50;10289053;28;96941;-77
2021/12/25 20:36:50;;;;;;;39.88;24.27;;;;;;;4.08;83.75;94976.56;10282556;28;97295;-77
2021/12/25 20:41:53;;;;;;;24.52;16.60;;;;;;;4.04;83.98;94976.03;10290611;28;98083;-76
2021/12/25 20:46:58;;;;;;;18.10;13.63;;;;;;;4.03;83.86;94969.22;10288596;28;98594;-77
2021/12/25 20:52:03;;;;;;;25.27;16.65;;;;;;;4.05;83.28;94977.63;10300852;28;97092;-77
2021/12/25 20:57:08;;;;;;;25.47;17.60;;;;;;;4.08;83.84;94977.38;10285616;28;97237;-76
2021/12/25 21:02:13;;;;;;;21.77;14.60;;;;;;;4.13;82.99;94987.31;10289216;28;96859;-76
2021/12/25 21:07:16;;;;;;;25.20;17.33;;;;;;;4.17;83.15;94992.03;10285164;28;97076;-77
2021/12/25 21:12:19;;;;;;;25.20;18.58;;;;;;;4.21;82.94;94992.56;10282697;28;96882;-76
2021/12/25 21:17:24;;;;;;;40.63;25.23;;;;;;;4.10;83.99;94996.13;10280999;28;97389;-77
2021/12/25 21:22:27;;;;;;;38.13;24.67;;;;;;;4.09;83.82;95009.19;10274911;28;99231;-77
2021/12/25 21:27:30;;;;;;;17.63;12.32;;;;;;;3.89;83.50;95009.22;10284542;28;96768;-77
2021/12/25 21:32:35;;;;;;;16.13;11.77;;;;;;;3.83;84.39;95000.25;10304089;28;98811;-76
2021/12/25 21:37:38;;;;;;;14.43;10.27;;;;;;;3.75;84.26;95002.69;10295418;28;98459;-77
2021/12/25 21:42:44;;;;;;;10.27;7.50;;;;;;;3.80;84.40;95004.88;10281172;28;96944;-77
2021/12/25 21:47:49;;;;;;;8.80;6.70;;;;;;;3.82;84.22;95003.78;10286993;28;96822;-76
2021/12/25 21:52:54;;;;;;;8.33;6.40;;;;;;;3.81;84.46;95001.31;10296360;28;97029;-76
2021/12/25 21:57:58;;;;;;;9.75;6.97;;;;;;;3.95;84.08;95005.25;10288162;28;97765;-76
2021/12/25 22:03:03;;;;;;;10.70;6.93;;;;;;;4.04;83.92;95007.03;10283923;28;96904;-76
2021/12/25 22:08:07;;;;;;;;;;;;;;;4.12;83.65;95020.06;10292448;28;96891;-77
2021/12/25 22:13:10;;;;;;;12.15;8.70;;;;;;;4.13;83.67;95021.72;10284018;28;96818;-76
2021/12/25 22:18:14;;;;;;;17.80;13.15;;;;;;;3.89;83.82;95016.97;10283487;28;98183;-76
2021/12/25 22:23:26;;;;;;;17.83;13.27;;;;;;;3.89;83.71;95022.13;10292569;28;96840;-76
2021/12/25 22:28:29;;;;;;;18.38;12.85;;;;;;;3.95;84.22;95026.78;10304736;28;98709;-76
2021/12/25 22:33:33;;;;;;;17.85;12.77;;;;;;;3.86;84.22;95024.97;10300132;28;96813;-77
2021/12/25 22:38:36;;;;;;;17.40;11.87;;;;;;;3.93;84.33;95031.22;10296660;28;97163;-76
2021/12/25 22:43:39;;;;;;;15.13;11.40;;;;;;;4.01;84.05;95038.31;10283095;28;98794;-76
2021/12/25 22:48:43;;;;;;;45.05;25.77;;;;;;;4.06;83.33;95035.34;10286168;28;96893;-76
2021/12/25 22:53:48;;;;;;;41.15;19.77;;;;;;;4.12;83.67;95045.09;10299551;28;100496;-76
2021/12/25 22:58:51;;;;;;;17.25;11.05;;;;;;;4.17;83.50;95043.72;10287621;28;98708;-76
2021/12/25 23:03:57;;;;;;;12.32;8.18;;;;;;;4.18;83.73;95045.38;10286016;28;98614;-76
2021/12/25 23:09:01;;;;;;;18.13;9.13;;;;;;;4.24;84.14;95045.78;10296989;28;97865;-76
2021/12/25 23:14:09;;;;;;;11.57;8.25;;;;;;;4.20;83.44;95033.13;10304826;28;96761;-76
2021/12/25 23:19:15;;;;;;;17.52;10.65;;;;;;;4.26;83.68;95030.94;10289202;28;97894;-76
2021/12/25 23:24:19;;;;;;;16.75;11.63;;;;;;;4.28;83.82;95034.19;10290516;28;97020;-76
2021/12/25 23:29:22;;;;;;;16.98;11.18;;;;;;;4.26;83.59;95041.28;10297296;28;97545;-76
2021/12/25 23:34:26;;;;;;;14.23;9.45;;;;;;;4.22;83.28;95032.19;10299886;28;97498;-76
2021/12/25 23:39:29;;;;;;;14.30;9.60;;;;;;;4.22;83.28;95037.34;10285858;28;98523;-76
2021/12/25 23:44:33;;;;;;;11.82;9.30;;;;;;;4.21;83.42;95033.94;10281851;28;96874;-76
2021/12/25 23:49:37;;;;;;;13.88;9.80;;;;;;;4.18;83.64;95027.28;10288907;28;96759;-76
2021/12/25 23:54:40;;;;;;;21.30;13.05;;;;;;;4.05;83.65;95018.19;10293711;28;97524;-76
2021/12/25 23:59:43;;;;;;;13.93;8.20;;;;;;;3.81;83.73;95020.25;10285300;28;97380;-76
